Terminal Aerodrome Forecast
Issued by NWS

Home | Current Version | Previous Version | Text Only | Print | Product List | Glossary On
Versions: 1 2 3 4 5 6 7 8 9 10 11 12 13 14
000
FTUS44 KCRP 290500
TAFLRD
TAF
KLRD 290526Z 2906/3006 17010KT P6SM SKC
     FM291000 16007KT 6SM BR SCT012 WS020/18032KT
     FM291500 17012G18KT P6SM SCT025
     FM292200 15011KT P6SM FEW035=

USA.gov is the U.S. government's official web portal to all federal, state and local government web resources and services.